sensor_id;sensor_type;location;lat;lon;timestamp;pressure;altitude;pressure_sealevel;temperature;humidity
15880;BME280;61999;51.514;14.614;2023-04-09T00:00:04;101022.63;;;-2.30;51.61
15880;BME280;61999;51.514;14.614;2023-04-09T00:02:32;101024.31;;;-2.28;51.03
15880;BME280;61999;51.514;14.614;2023-04-09T00:05:00;101022.59;;;-2.26;51.03
15880;BME280;61999;51.514;14.614;2023-04-09T00:07:28;101008.81;;;-2.23;50.35
15880;BME280;61999;51.514;14.614;2023-04-09T00:09:57;101016.34;;;-2.97;53.98
15880;BME280;61999;51.514;14.614;2023-04-09T00:12:25;101013.00;;;-3.12;54.35
15880;BME280;61999;51.514;14.614;2023-04-09T00:14:53;101020.59;;;-2.93;53.44
15880;BME280;61999;51.514;14.614;2023-04-09T00:17:22;101014.38;;;-2.68;52.66
15880;BME280;61999;51.514;14.614;2023-04-09T00:19:50;101012.56;;;-2.57;51.88
15880;BME280;61999;51.514;14.614;2023-04-09T00:22:19;101010.78;;;-2.51;51.71
15880;BME280;61999;51.514;14.614;2023-04-09T00:24:47;101004.00;;;-2.59;52.26
15880;BME280;61999;51.514;14.614;2023-04-09T00:27:15;101011.91;;;-2.79;53.69
15880;BME280;61999;51.514;14.614;2023-04-09T00:29:43;101004.91;;;-2.66;52.97
15880;BME280;61999;51.514;14.614;2023-04-09T00:32:11;101012.63;;;-2.61;52.19
15880;BME280;61999;51.514;14.614;2023-04-09T00:34:40;101009.16;;;-2.59;51.59
15880;BME280;61999;51.514;14.614;2023-04-09T00:37:08;101010.84;;;-2.58;51.63
15880;BME280;61999;51.514;14.614;2023-04-09T00:39:36;101011.72;;;-2.56;51.24
15880;BME280;61999;51.514;14.614;2023-04-09T00:42:04;101011.72;;;-2.56;51.53
15880;BME280;61999;51.514;14.614;2023-04-09T00:44:32;101017.72;;;-2.57;51.70
15880;BME280;61999;51.514;14.614;2023-04-09T00:47:00;101017.69;;;-2.53;51.35
15880;BME280;61999;51.514;14.614;2023-04-09T00:49:29;101007.38;;;-2.53;50.93
15880;BME280;61999;51.514;14.614;2023-04-09T00:51:58;101008.22;;;-2.51;51.22
15880;BME280;61999;51.514;14.614;2023-04-09T00:54:27;101006.50;;;-2.52;51.19
15880;BME280;61999;51.514;14.614;2023-04-09T00:56:56;101001.38;;;-2.56;51.34
15880;BME280;61999;51.514;14.614;2023-04-09T00:59:24;101002.28;;;-2.63;51.38
15880;BME280;61999;51.514;14.614;2023-04-09T01:01:53;101002.38;;;-2.72;52.03
15880;BME280;61999;51.514;14.614;2023-04-09T01:04:22;101002.28;;;-2.63;51.05
15880;BME280;61999;51.514;14.614;2023-04-09T01:06:56;101003.25;;;-2.74;52.01
15880;BME280;61999;51.514;14.614;2023-04-09T01:09:34;101005.88;;;-2.78;51.48
15880;BME280;61999;51.514;14.614;2023-04-09T01:12:13;101009.31;;;-2.75;51.31
15880;BME280;61999;51.514;14.614;2023-04-09T01:14:53;101006.69;;;-2.72;51.51
15880;BME280;61999;51.514;14.614;2023-04-09T01:17:30;101011.00;;;-2.73;51.14
15880;BME280;61999;51.514;14.614;2023-04-09T01:20:09;101011.81;;;-2.71;50.93
15880;BME280;61999;51.514;14.614;2023-04-09T01:22:56;101007.50;;;-2.69;50.86
15880;BME280;61999;51.514;14.614;2023-04-09T01:25:44;101006.66;;;-2.71;50.86
15880;BME280;61999;51.514;14.614;2023-04-09T01:28:26;101013.59;;;-2.73;51.21
15880;BME280;61999;51.514;14.614;2023-04-09T01:31:01;101012.69;;;-2.73;50.99
15880;BME280;61999;51.514;14.614;2023-04-09T01:33:34;101017.03;;;-2.77;51.44
15880;BME280;61999;51.514;14.614;2023-04-09T01:36:07;101013.78;;;-3.02;53.24
15880;BME280;61999;51.514;14.614;2023-04-09T01:38:41;101014.75;;;-3.14;54.06
15880;BME280;61999;51.514;14.614;2023-04-09T01:41:17;101012.09;;;-3.03;53.62
15880;BME280;61999;51.514;14.614;2023-04-09T01:43:51;101019.81;;;-2.98;53.35
15880;BME280;61999;51.514;14.614;2023-04-09T01:46:22;101012.88;;;-2.93;52.51
15880;BME280;61999;51.514;14.614;2023-04-09T01:48:55;101022.28;;;-2.88;52.28
15880;BME280;61999;51.514;14.614;2023-04-09T01:51:25;101030.03;;;-2.86;51.95
15880;BME280;61999;51.514;14.614;2023-04-09T01:53:57;101026.56;;;-2.85;51.57
15880;BME280;61999;51.514;14.614;2023-04-09T01:56:38;101028.31;;;-2.84;51.50
15880;BME280;61999;51.514;14.614;2023-04-09T01:59:10;101023.97;;;-2.85;51.83
15880;BME280;61999;51.514;14.614;2023-04-09T02:01:45;101023.16;;;-2.87;51.39
15880;BME280;61999;51.514;14.614;2023-04-09T02:04:22;101025.75;;;-2.87;51.17
15880;BME280;61999;51.514;14.614;2023-04-09T02:07:04;101036.03;;;-2.86;51.17
15880;BME280;61999;51.514;14.614;2023-04-09T02:09:39;101033.47;;;-2.87;51.22
15880;BME280;61999;51.514;14.614;2023-04-09T02:12:15;101029.16;;;-2.88;51.56
15880;BME280;61999;51.514;14.614;2023-04-09T02:14:51;101041.22;;;-2.89;51.07
15880;BME280;61999;51.514;14.614;2023-04-09T02:17:29;101034.34;;;-2.91;51.05
15880;BME280;61999;51.514;14.614;2023-04-09T02:20:03;101030.16;;;-3.02;51.89
15880;BME280;61999;51.514;14.614;2023-04-09T02:22:34;101038.72;;;-3.03;52.01
15880;BME280;61999;51.514;14.614;2023-04-09T02:25:05;101040.47;;;-3.02;52.06
15880;BME280;61999;51.514;14.614;2023-04-09T02:27:36;101034.47;;;-3.07;51.96
15880;BME280;61999;51.514;14.614;2023-04-09T02:30:09;101036.19;;;-3.04;52.11
15880;BME280;61999;51.514;14.614;2023-04-09T02:32:39;101042.19;;;-3.05;52.16
15880;BME280;61999;51.514;14.614;2023-04-09T02:35:10;101042.16;;;-3.02;51.82
15880;BME280;61999;51.514;14.614;2023-04-09T02:37:43;101035.31;;;-3.08;51.81
15880;BME280;61999;51.514;14.614;2023-04-09T02:40:18;101030.22;;;-3.14;52.14
15880;BME280;61999;51.514;14.614;2023-04-09T02:42:51;101030.44;;;-3.54;53.95
15880;BME280;61999;51.514;14.614;2023-04-09T02:45:26;101029.59;;;-3.54;54.61
15880;BME280;61999;51.514;14.614;2023-04-09T02:47:57;101033.88;;;-3.47;54.22
15880;BME280;61999;51.514;14.614;2023-04-09T02:50:27;101031.22;;;-3.33;53.22
15880;BME280;61999;51.514;14.614;2023-04-09T02:52:57;101031.16;;;-3.24;53.18
15880;BME280;61999;51.514;14.614;2023-04-09T02:55:27;101026.84;;;-3.25;52.61
15880;BME280;61999;51.514;14.614;2023-04-09T02:57:57;101027.84;;;-3.44;53.48
15880;BME280;61999;51.514;14.614;2023-04-09T03:00:28;101022.72;;;-3.57;54.57
15880;BME280;61999;51.514;14.614;2023-04-09T03:03:01;101022.69;;;-3.51;53.55
15880;BME280;61999;51.514;14.614;2023-04-09T03:05:30;101021.78;;;-3.40;52.97
15880;BME280;61999;51.514;14.614;2023-04-09T03:08:00;101014.91;;;-3.38;52.58
15880;BME280;61999;51.514;14.614;2023-04-09T03:10:30;101016.59;;;-3.34;52.36
15880;BME280;61999;51.514;14.614;2023-04-09T03:13:00;101013.16;;;-3.36;52.43
15880;BME280;61999;51.514;14.614;2023-04-09T03:15:31;101009.78;;;-3.44;52.64
15880;BME280;61999;51.514;14.614;2023-04-09T03:18:02;101000.34;;;-3.44;52.80
15880;BME280;61999;51.514;14.614;2023-04-09T03:20:31;100999.53;;;-3.57;53.40
15880;BME280;61999;51.514;14.614;2023-04-09T03:23:01;100993.50;;;-3.54;52.80
15880;BME280;61999;51.514;14.614;2023-04-09T03:25:30;100985.81;;;-3.56;53.18
15880;BME280;61999;51.514;14.614;2023-04-09T03:28:00;100988.31;;;-3.48;52.81
15880;BME280;61999;51.514;14.614;2023-04-09T03:30:31;100984.03;;;-3.51;53.56
15880;BME280;61999;51.514;14.614;2023-04-09T03:33:01;100980.66;;;-3.56;52.98
15880;BME280;61999;51.514;14.614;2023-04-09T03:35:30;100978.88;;;-3.51;52.72
15880;BME280;61999;51.514;14.614;2023-04-09T03:38:00;100989.19;;;-3.48;52.50
15880;BME280;61999;51.514;14.614;2023-04-09T03:40:30;100985.75;;;-3.47;52.26
15880;BME280;61999;51.514;14.614;2023-04-09T03:43:00;100983.16;;;-3.47;52.35
15880;BME280;61999;51.514;14.614;2023-04-09T03:45:32;100984.03;;;-3.51;52.44
15880;BME280;61999;51.514;14.614;2023-04-09T03:48:02;100979.78;;;-3.53;52.69
15880;BME280;61999;51.514;14.614;2023-04-09T03:50:38;100984.94;;;-3.53;52.66
15880;BME280;61999;51.514;14.614;2023-04-09T03:54:40;100985.78;;;-3.53;52.21
15880;BME280;61999;51.514;14.614;2023-04-09T03:58:55;100984.09;;;-3.63;52.36
15880;BME280;61999;51.514;14.614;2023-04-09T04:02:57;100985.84;;;-3.68;52.12
15880;BME280;61999;51.514;14.614;2023-04-09T04:06:42;100993.59;;;-3.70;52.25
15880;BME280;61999;51.514;14.614;2023-04-09T04:09:55;100993.56;;;-3.68;52.04
15880;BME280;61999;51.514;14.614;2023-04-09T04:13:31;101000.44;;;-3.69;52.11
15880;BME280;61999;51.514;14.614;2023-04-09T04:16:45;100996.16;;;-3.71;51.73
15880;BME280;61999;51.514;14.614;2023-04-09T04:19:15;100998.72;;;-3.68;51.84
15880;BME280;61999;51.514;14.614;2023-04-09T04:21:44;101001.28;;;-3.65;52.07
15880;BME280;61999;51.514;14.614;2023-04-09T04:24:13;100995.28;;;-3.64;51.92
15880;BME280;61999;51.514;14.614;2023-04-09T04:26:43;100996.16;;;-3.62;51.90
15880;BME280;61999;51.514;14.614;2023-04-09T04:29:12;101004.72;;;-3.58;51.80
15880;BME280;61999;51.514;14.614;2023-04-09T04:31:42;101005.56;;;-3.62;52.41
15880;BME280;61999;51.514;14.614;2023-04-09T04:34:11;101004.75;;;-3.69;52.57
15880;BME280;61999;51.514;14.614;2023-04-09T04:36:42;101008.19;;;-3.64;52.52
15880;BME280;61999;51.514;14.614;2023-04-09T04:39:12;101011.59;;;-3.65;52.23
15880;BME280;61999;51.514;14.614;2023-04-09T04:41:41;101016.81;;;-3.77;52.94
15880;BME280;61999;51.514;14.614;2023-04-09T04:44:09;101016.91;;;-3.99;53.81
15880;BME280;61999;51.514;14.614;2023-04-09T04:46:37;101014.44;;;-4.69;58.12
15880;BME280;61999;51.514;14.614;2023-04-09T04:49:06;101011.78;;;-4.20;56.67
15880;BME280;61999;51.514;14.614;2023-04-09T04:51:34;101010.00;;;-3.94;54.79
15880;BME280;61999;51.514;14.614;2023-04-09T04:54:03;101009.97;;;-3.81;54.02
15880;BME280;61999;51.514;14.614;2023-04-09T04:56:32;101011.66;;;-3.74;53.62
15880;BME280;61999;51.514;14.614;2023-04-09T04:59:00;101013.38;;;-3.70;53.34
15880;BME280;61999;51.514;14.614;2023-04-09T05:01:28;101009.03;;;-3.68;53.52
15880;BME280;61999;51.514;14.614;2023-04-09T05:03:56;101014.16;;;-3.60;53.47
15880;BME280;61999;51.514;14.614;2023-04-09T05:06:24;101005.53;;;-3.56;53.18
15880;BME280;61999;51.514;14.614;2023-04-09T05:08:53;101008.09;;;-3.52;52.91
15880;BME280;61999;51.514;14.614;2023-04-09T05:11:26;101003.81;;;-3.50;53.19
15880;BME280;61999;51.514;14.614;2023-04-09T05:13:56;101008.91;;;-3.45;52.81
15880;BME280;61999;51.514;14.614;2023-04-09T05:16:25;101017.47;;;-3.40;52.60
15880;BME280;61999;51.514;14.614;2023-04-09T05:18:55;101013.16;;;-3.36;52.13
15880;BME280;61999;51.514;14.614;2023-04-09T05:21:24;101018.31;;;-3.33;52.42
15880;BME280;61999;51.514;14.614;2023-04-09T05:23:54;101025.16;;;-3.29;52.34
15880;BME280;61999;51.514;14.614;2023-04-09T05:26:25;101026.84;;;-3.24;52.54
15880;BME280;61999;51.514;14.614;2023-04-09T05:28:54;101030.25;;;-3.18;52.75
15880;BME280;61999;51.514;14.614;2023-04-09T05:31:24;101024.19;;;-3.14;52.58
15880;BME280;61999;51.514;14.614;2023-04-09T05:33:53;101028.50;;;-3.12;52.56
15880;BME280;61999;51.514;14.614;2023-04-09T05:36:21;101029.28;;;-3.05;52.94
15880;BME280;61999;51.514;14.614;2023-04-09T05:38:49;101038.69;;;-2.96;52.80
15880;BME280;61999;51.514;14.614;2023-04-09T05:41:17;101028.34;;;-2.90;53.04
15880;BME280;61999;51.514;14.614;2023-04-09T05:43:46;101019.84;;;-3.06;55.18
15880;BME280;61999;51.514;14.614;2023-04-09T05:46:14;101018.16;;;-3.12;56.01
15880;BME280;61999;51.514;14.614;2023-04-09T05:48:43;101022.41;;;-3.03;56.28
15880;BME280;61999;51.514;14.614;2023-04-09T05:51:12;101018.03;;;-2.93;55.47
15880;BME280;61999;51.514;14.614;2023-04-09T05:53:42;101014.50;;;-2.80;55.09
15880;BME280;61999;51.514;14.614;2023-04-09T05:56:13;101019.56;;;-2.71;54.39
15880;BME280;61999;51.514;14.614;2023-04-09T05:58:44;101017.75;;;-2.60;54.46
15880;BME280;61999;51.514;14.614;2023-04-09T06:01:16;101014.25;;;-2.52;54.53
15880;BME280;61999;51.514;14.614;2023-04-09T06:03:44;101022.78;;;-2.44;54.40
15880;BME280;61999;51.514;14.614;2023-04-09T06:06:12;101020.13;;;-2.37;54.42
15880;BME280;61999;51.514;14.614;2023-04-09T06:08:41;101027.78;;;-2.29;54.40
15880;BME280;61999;51.514;14.614;2023-04-09T06:11:21;101025.16;;;-2.23;53.88
15880;BME280;61999;51.514;14.614;2023-04-09T06:13:50;101023.38;;;-2.18;54.12
15880;BME280;61999;51.514;14.614;2023-04-09T06:16:20;101028.47;;;-2.12;54.21
15880;BME280;61999;51.514;14.614;2023-04-09T06:18:51;101023.19;;;-2.02;54.08
15880;BME280;61999;51.514;14.614;2023-04-09T06:21:43;101028.28;;;-1.93;54.31
15880;BME280;61999;51.514;14.614;2023-04-09T06:24:11;101028.25;;;-1.92;54.92
15880;BME280;61999;51.514;14.614;2023-04-09T06:26:39;101037.56;;;-1.80;54.62
15880;BME280;61999;51.514;14.614;2023-04-09T06:29:07;101048.69;;;-1.70;54.70
15880;BME280;61999;51.514;14.614;2023-04-09T06:31:36;101043.38;;;-1.58;54.75
15880;BME280;61999;51.514;14.614;2023-04-09T06:34:04;101045.88;;;-1.50;54.87
15880;BME280;61999;51.514;14.614;2023-04-09T06:36:33;101052.63;;;-1.40;54.74
15880;BME280;61999;51.514;14.614;2023-04-09T06:39:03;101051.63;;;-1.30;55.42
15880;BME280;61999;51.514;14.614;2023-04-09T06:41:31;101060.06;;;-1.15;55.95
15880;BME280;61999;51.514;14.614;2023-04-09T06:43:59;101057.22;;;-0.99;55.15
15880;BME280;61999;51.514;14.614;2023-04-09T06:46:27;101057.47;;;-1.15;57.71
15880;BME280;61999;51.514;14.614;2023-04-09T06:48:57;101067.06;;;-1.24;58.98
15880;BME280;61999;51.514;14.614;2023-04-09T06:51:25;101063.75;;;-0.75;56.62
15880;BME280;61999;51.514;14.614;2023-04-09T06:53:53;101071.09;;;-0.48;56.40
15880;BME280;61999;51.514;14.614;2023-04-09T06:56:21;101071.59;;;-0.26;56.12
15880;BME280;61999;51.514;14.614;2023-04-09T06:58:49;101076.34;;;-0.05;55.31
15880;BME280;61999;51.514;14.614;2023-04-09T07:01:18;101071.75;;;0.11;55.49
15880;BME280;61999;51.514;14.614;2023-04-09T07:03:46;101070.78;;;-0.83;58.38
15880;BME280;61999;51.514;14.614;2023-04-09T07:06:16;101075.69;;;-0.64;58.95
15880;BME280;61999;51.514;14.614;2023-04-09T07:08:44;101063.41;;;-1.10;60.90
15880;BME280;61999;51.514;14.614;2023-04-09T07:11:12;101067.88;;;-1.18;62.80
15880;BME280;61999;51.514;14.614;2023-04-09T07:13:57;101068.94;;;-1.36;63.26
15880;BME280;61999;51.514;14.614;2023-04-09T07:16:28;101071.28;;;-1.91;65.52
15880;BME280;61999;51.514;14.614;2023-04-09T07:18:56;101070.91;;;-1.54;63.95
15880;BME280;61999;51.514;14.614;2023-04-09T07:21:26;101071.41;;;-1.26;61.89
15880;BME280;61999;51.514;14.614;2023-04-09T07:23:54;101077.84;;;-0.40;60.03
15880;BME280;61999;51.514;14.614;2023-04-09T07:26:23;101081.38;;;0.04;59.45
15880;BME280;61999;51.514;14.614;2023-04-09T07:28:51;101092.84;;;0.39;58.00
15880;BME280;61999;51.514;14.614;2023-04-09T07:31:19;101091.41;;;0.68;56.82
15880;BME280;61999;51.514;14.614;2023-04-09T07:33:47;101090.34;;;0.75;55.37
15880;BME280;61999;51.514;14.614;2023-04-09T07:36:15;101083.47;;;0.74;55.74
15880;BME280;61999;51.514;14.614;2023-04-09T07:38:44;101084.31;;;-0.14;58.00
15880;BME280;61999;51.514;14.614;2023-04-09T07:41:12;101091.63;;;-0.92;61.11
15880;BME280;61999;51.514;14.614;2023-04-09T07:43:41;101082.13;;;-0.36;59.96
15880;BME280;61999;51.514;14.614;2023-04-09T07:46:09;101077.34;;;0.36;57.78
15880;BME280;61999;51.514;14.614;2023-04-09T07:48:37;101090.28;;;-0.59;59.54
15880;BME280;61999;51.514;14.614;2023-04-09T07:51:05;101083.34;;;-1.15;60.81
15880;BME280;61999;51.514;14.614;2023-04-09T07:53:35;101085.03;;;-1.14;62.15
15880;BME280;61999;51.514;14.614;2023-04-09T07:56:12;101082.13;;;-0.36;61.18
15880;BME280;61999;51.514;14.614;2023-04-09T07:58:40;101074.38;;;0.09;58.62
15880;BME280;61999;51.514;14.614;2023-04-09T08:01:08;101071.63;;;-0.30;59.92
15880;BME280;61999;51.514;14.614;2023-04-09T08:03:36;101074.44;;;0.51;57.28
15880;BME280;61999;51.514;14.614;2023-04-09T08:06:04;101068.97;;;0.22;56.75
15880;BME280;61999;51.514;14.614;2023-04-09T08:08:33;101074.56;;;0.45;57.74
15880;BME280;61999;51.514;14.614;2023-04-09T08:11:01;101070.13;;;-0.43;59.07
15880;BME280;61999;51.514;14.614;2023-04-09T08:13:30;101075.53;;;-0.55;61.08
15880;BME280;61999;51.514;14.614;2023-04-09T08:15:59;101078.97;;;-0.56;60.82
15880;BME280;61999;51.514;14.614;2023-04-09T08:18:28;101077.88;;;-0.41;61.10
15880;BME280;61999;51.514;14.614;2023-04-09T08:20:57;101074.06;;;-0.71;62.10
15880;BME280;61999;51.514;14.614;2023-04-09T08:23:25;101069.00;;;0.19;59.61
15880;BME280;61999;51.514;14.614;2023-04-09T08:25:53;101061.41;;;0.54;57.02
15880;BME280;61999;51.514;14.614;2023-04-09T08:28:21;101071.53;;;1.04;56.38
15880;BME280;61999;51.514;14.614;2023-04-09T08:30:51;101078.88;;;1.60;54.93
15880;BME280;61999;51.514;14.614;2023-04-09T08:33:19;101077.72;;;2.04;54.31
15880;BME280;61999;51.514;14.614;2023-04-09T08:35:47;101082.75;;;2.42;53.36
15880;BME280;61999;51.514;14.614;2023-04-09T08:38:15;101078.91;;;2.55;52.53
15880;BME280;61999;51.514;14.614;2023-04-09T08:40:43;101069.78;;;2.10;51.51
15880;BME280;61999;51.514;14.614;2023-04-09T08:43:15;101068.19;;;2.05;53.33
15880;BME280;61999;51.514;14.614;2023-04-09T08:45:43;101078.50;;;2.08;52.34
15880;BME280;61999;51.514;14.614;2023-04-09T08:48:16;101069.66;;;2.74;52.11
15880;BME280;61999;51.514;14.614;2023-04-09T08:50:49;101076.69;;;2.99;51.54
15880;BME280;61999;51.514;14.614;2023-04-09T08:53:23;101063.25;;;3.13;50.44
15880;BME280;61999;51.514;14.614;2023-04-09T08:55:55;101068.50;;;3.11;50.69
15880;BME280;61999;51.514;14.614;2023-04-09T08:58:23;101059.59;;;3.18;50.63
15880;BME280;61999;51.514;14.614;2023-04-09T09:01:17;101067.19;;;2.40;51.03
15880;BME280;61999;51.514;14.614;2023-04-09T09:03:57;101063.22;;;2.27;52.05
15880;BME280;61999;51.514;14.614;2023-04-09T09:06:45;101071.16;;;1.57;52.82
15880;BME280;61999;51.514;14.614;2023-04-09T09:09:51;101063.59;;;2.74;51.61
15880;BME280;61999;51.514;14.614;2023-04-09T09:12:35;101063.25;;;2.84;50.14
15880;BME280;61999;51.514;14.614;2023-04-09T09:15:37;101061.88;;;2.73;50.96
15880;BME280;61999;51.514;14.614;2023-04-09T09:18:16;101057.16;;;2.26;51.94
15880;BME280;61999;51.514;14.614;2023-04-09T09:20:46;101056.97;;;2.92;51.32
15880;BME280;61999;51.514;14.614;2023-04-09T09:23:14;101060.69;;;3.11;50.14
15880;BME280;61999;51.514;14.614;2023-04-09T09:25:42;101057.22;;;3.39;48.59
15880;BME280;61999;51.514;14.614;2023-04-09T09:28:11;101053.31;;;3.25;48.46
15880;BME280;61999;51.514;14.614;2023-04-09T09:30:46;101051.78;;;3.71;49.23
15880;BME280;61999;51.514;14.614;2023-04-09T09:33:35;101051.84;;;4.18;48.04
15880;BME280;61999;51.514;14.614;2023-04-09T09:36:05;101047.97;;;2.74;49.49
15880;BME280;61999;51.514;14.614;2023-04-09T09:38:51;101047.88;;;3.58;47.78
15880;BME280;61999;51.514;14.614;2023-04-09T09:41:20;101043.41;;;3.62;48.24
15880;BME280;61999;51.514;14.614;2023-04-09T09:43:49;101052.81;;;1.95;50.40
15880;BME280;61999;51.514;14.614;2023-04-09T09:46:17;101055.53;;;3.10;49.44
15880;BME280;61999;51.514;14.614;2023-04-09T09:48:47;101053.63;;;3.93;47.83
15880;BME280;61999;51.514;14.614;2023-04-09T09:51:21;101060.13;;;4.53;46.17
15880;BME280;61999;51.514;14.614;2023-04-09T09:53:55;101061.16;;;4.26;45.13
15880;BME280;61999;51.514;14.614;2023-04-09T09:56:29;101060.94;;;4.32;45.27
15880;BME280;61999;51.514;14.614;2023-04-09T09:59:05;101062.06;;;4.48;44.20
15880;BME280;61999;51.514;14.614;2023-04-09T10:01:34;101062.56;;;4.34;44.98
15880;BME280;61999;51.514;14.614;2023-04-09T10:04:05;101059.28;;;4.06;44.64
15880;BME280;61999;51.514;14.614;2023-04-09T10:06:35;101065.41;;;4.75;44.95
15880;BME280;61999;51.514;14.614;2023-04-09T10:09:05;101060.41;;;4.69;44.55
15880;BME280;61999;51.514;14.614;2023-04-09T10:11:35;101062.81;;;4.97;44.43
15880;BME280;61999;51.514;14.614;2023-04-09T10:14:04;101061.94;;;5.61;44.25
15880;BME280;61999;51.514;14.614;2023-04-09T10:16:32;101070.75;;;5.38;43.85
15880;BME280;61999;51.514;14.614;2023-04-09T10:19:01;101067.41;;;4.45;45.76
15880;BME280;61999;51.514;14.614;2023-04-09T10:21:40;101061.22;;;3.49;47.69
15880;BME280;61999;51.514;14.614;2023-04-09T10:24:09;101052.16;;;3.86;47.43
15880;BME280;61999;51.514;14.614;2023-04-09T10:26:40;101053.09;;;4.55;46.05
15880;BME280;61999;51.514;14.614;2023-04-09T10:29:12;101051.41;;;5.63;45.00
15880;BME280;61999;51.514;14.614;2023-04-09T10:31:50;101058.19;;;6.28;43.65
15880;BME280;61999;51.514;14.614;2023-04-09T10:34:22;101058.19;;;6.28;42.23
15880;BME280;61999;51.514;14.614;2023-04-09T10:36:55;101056.34;;;6.87;42.05
15880;BME280;61999;51.514;14.614;2023-04-09T10:39:26;101045.13;;;6.64;40.46
15880;BME280;61999;51.514;14.614;2023-04-09T10:41:57;101051.84;;;5.31;43.87
15880;BME280;61999;51.514;14.614;2023-04-09T10:44:27;101048.69;;;6.26;44.00
15880;BME280;61999;51.514;14.614;2023-04-09T10:46:57;101044.25;;;7.02;42.97
15880;BME280;61999;51.514;14.614;2023-04-09T10:49:26;101042.31;;;6.69;40.39
15880;BME280;61999;51.514;14.614;2023-04-09T10:52:04;101037.38;;;5.23;42.90
15880;BME280;61999;51.514;14.614;2023-04-09T10:54:44;101026.22;;;6.77;40.53
15880;BME280;61999;51.514;14.614;2023-04-09T10:57:19;101030.84;;;4.45;44.94
15880;BME280;61999;51.514;14.614;2023-04-09T10:59:50;101038.63;;;5.14;43.66
15880;BME280;61999;51.514;14.614;2023-04-09T11:02:47;101034.84;;;6.03;42.38
15880;BME280;61999;51.514;14.614;2023-04-09T11:05:31;101025.41;;;5.80;42.70
15880;BME280;61999;51.514;14.614;2023-04-09T11:08:06;101029.16;;;6.52;42.37
15880;BME280;61999;51.514;14.614;2023-04-09T11:10:36;101027.44;;;6.88;40.92
15880;BME280;61999;51.514;14.614;2023-04-09T11:13:04;101033.75;;;6.84;40.78
15880;BME280;61999;51.514;14.614;2023-04-09T11:15:34;101028.69;;;8.03;40.55
15880;BME280;61999;51.514;14.614;2023-04-09T11:18:03;101024.59;;;9.24;40.11
15880;BME280;61999;51.514;14.614;2023-04-09T11:20:33;101023.97;;;10.22;38.91
15880;BME280;61999;51.514;14.614;2023-04-09T11:23:01;101019.03;;;10.59;34.42
15880;BME280;61999;51.514;14.614;2023-04-09T11:25:32;101005.81;;;9.30;33.77
15880;BME280;61999;51.514;14.614;2023-04-09T11:28:03;101016.00;;;9.51;34.98
15880;BME280;61999;51.514;14.614;2023-04-09T11:30:31;101008.53;;;8.51;35.67
15880;BME280;61999;51.514;14.614;2023-04-09T11:33:01;101008.16;;;9.79;36.24
15880;BME280;61999;51.514;14.614;2023-04-09T11:35:33;101006.22;;;9.83;33.31
15880;BME280;61999;51.514;14.614;2023-04-09T11:38:06;101008.03;;;8.92;35.82
15880;BME280;61999;51.514;14.614;2023-04-09T11:40:42;101010.91;;;9.48;35.77
15880;BME280;61999;51.514;14.614;2023-04-09T11:43:16;101008.59;;;9.57;34.13
15880;BME280;61999;51.514;14.614;2023-04-09T11:45:52;101009.44;;;7.34;35.94
15880;BME280;61999;51.514;14.614;2023-04-09T11:48:22;101001.88;;;7.46;38.60
15880;BME280;61999;51.514;14.614;2023-04-09T11:50:50;101001.06;;;8.28;35.97
15880;BME280;61999;51.514;14.614;2023-04-09T11:53:21;100996.00;;;7.58;37.15
15880;BME280;61999;51.514;14.614;2023-04-09T11:55:52;100996.41;;;6.79;38.52
15880;BME280;61999;51.514;14.614;2023-04-09T11:58:22;101001.94;;;5.97;40.53
15880;BME280;61999;51.514;14.614;2023-04-09T12:00:52;101000.38;;;5.93;41.41
15880;BME280;61999;51.514;14.614;2023-04-09T12:03:29;100996.22;;;7.36;39.10
15880;BME280;61999;51.514;14.614;2023-04-09T12:06:00;100993.06;;;7.12;37.79
15880;BME280;61999;51.514;14.614;2023-04-09T12:08:29;101002.53;;;6.23;39.43
15880;BME280;61999;51.514;14.614;2023-04-09T12:11:09;101000.78;;;5.02;43.92
15880;BME280;61999;51.514;14.614;2023-04-09T12:13:38;100997.22;;;6.06;41.78
15880;BME280;61999;51.514;14.614;2023-04-09T12:16:13;101002.72;;;6.94;40.96
15880;BME280;61999;51.514;14.614;2023-04-09T12:18:51;101001.72;;;7.49;38.85
15880;BME280;61999;51.514;14.614;2023-04-09T12:21:25;101004.94;;;7.37;38.70
15880;BME280;61999;51.514;14.614;2023-04-09T12:23:58;100998.59;;;7.75;40.06
15880;BME280;61999;51.514;14.614;2023-04-09T12:26:32;101002.13;;;9.03;38.42
15880;BME280;61999;51.514;14.614;2023-04-09T12:29:04;100994.34;;;9.76;37.75
15880;BME280;61999;51.514;14.614;2023-04-09T12:31:38;100994.75;;;10.54;36.48
15880;BME280;61999;51.514;14.614;2023-04-09T12:34:13;100995.19;;;10.05;35.12
15880;BME280;61999;51.514;14.614;2023-04-09T12:36:50;100986.94;;;10.38;35.53
15880;BME280;61999;51.514;14.614;2023-04-09T12:39:27;100985.47;;;10.88;33.32
15880;BME280;61999;51.514;14.614;2023-04-09T12:42:02;100984.28;;;11.07;34.07
15880;BME280;61999;51.514;14.614;2023-04-09T12:44:36;100972.94;;;11.57;33.79
15880;BME280;61999;51.514;14.614;2023-04-09T12:47:13;100980.59;;;9.85;35.62
15880;BME280;61999;51.514;14.614;2023-04-09T12:49:50;100972.25;;;9.34;34.85
15880;BME280;61999;51.514;14.614;2023-04-09T12:52:24;100980.09;;;6.92;38.89
15880;BME280;61999;51.514;14.614;2023-04-09T12:55:04;100964.78;;;8.02;37.26
15880;BME280;61999;51.514;14.614;2023-04-09T12:57:48;100973.91;;;7.45;39.79
15880;BME280;61999;51.514;14.614;2023-04-09T13:00:28;100973.63;;;8.49;38.34
15880;BME280;61999;51.514;14.614;2023-04-09T13:03:08;100968.13;;;9.30;35.84
15880;BME280;61999;51.514;14.614;2023-04-09T13:05:47;100964.63;;;9.74;36.09
15880;BME280;61999;51.514;14.614;2023-04-09T13:08:27;100960.28;;;10.01;36.37
15880;BME280;61999;51.514;14.614;2023-04-09T13:11:04;100966.09;;;10.89;35.41
15880;BME280;61999;51.514;14.614;2023-04-09T13:13:44;100968.34;;;11.21;34.63